Time;durP1;ratioP1;P1;durP2;ratioP2;P2;SDS_P1;SDS_P2;PMS_P1;PMS_P2;Temp;Humidity;BMP_temperature;BMP_pressure;BME280_temperature;BME280_humidity;BME280_pressure;Samples;Min_cycle;Max_cycle;Signal;HPM_P1;HPM_P2
2022/01/22 00:00:25;;;;;;;4.25;2.22;;;;;;;19.20;43.37;101646.09;4987119;28;20130;-70
2022/01/22 00:02:51;;;;;;;5.38;2.65;;;;;;;19.18;43.14;101638.34;4983848;28;20049;-70
2022/01/22 00:05:19;;;;;;;3.67;2.40;;;;;;;19.18;42.97;101645.44;4987919;28;20410;-70
2022/01/22 00:07:45;;;;;;;5.78;2.65;;;;;;;19.15;42.95;101632.56;4978995;28;20106;-72
2022/01/22 00:10:17;;;;;;;4.55;2.58;;;;;;;19.12;42.69;101633.72;4976284;28;20470;-70
2022/01/22 00:13:07;;;;;;;5.22;3.08;;;;;;;19.11;42.36;101636.53;4983536;28;20117;-71
2022/01/22 00:15:32;;;;;;;5.28;2.60;;;;;;;19.07;42.57;101635.25;4982262;28;20094;-71
2022/01/22 00:17:58;;;;;;;5.50;2.50;;;;;;;19.06;42.55;101628.31;4978996;28;20061;-69
2022/01/22 00:20:26;;;;;;;5.60;2.60;;;;;;;19.04;42.57;101631.13;4985830;28;20042;-67
2022/01/22 00:22:53;;;;;;;3.53;2.67;;;;;;;19.04;42.39;101635.59;4985409;28;20030;-71
2022/01/22 00:25:20;;;;;;;4.68;3.13;;;;;;;19.01;42.32;101638.56;4985887;28;20022;-70
2022/01/22 00:27:47;;;;;;;6.13;2.50;;;;;;;18.98;42.14;101631.81;4985700;28;20138;-70
2022/01/22 00:30:18;;;;;;;6.25;3.20;;;;;;;18.98;41.91;101631.81;4987752;28;20035;-71
2022/01/22 00:32:44;;;;;;;5.03;2.80;;;;;;;18.97;41.93;101629.34;4981263;28;20038;-73
2022/01/22 00:35:10;;;;;;;4.55;2.63;;;;;;;18.94;41.64;101632.31;4994655;28;20041;-70
2022/01/22 00:37:38;;;;;;;4.47;3.22;;;;;;;18.93;41.66;101628.84;5003756;28;20041;-70
2022/01/22 00:40:04;;;;;;;3.50;2.80;;;;;;;18.91;41.56;101625.56;4984735;28;20034;-73
2022/01/22 00:42:33;;;;;;;8.20;2.63;;;;;;;18.92;42.87;101624.56;4986060;28;20030;-74
2022/01/22 00:44:58;;;;;;;3.97;1.95;;;;;;;18.92;43.38;101619.28;4985651;28;20560;-72
2022/01/22 00:47:24;;;;;;;6.68;2.22;;;;;;;18.92;43.79;101621.91;4986614;28;20030;-69
2022/01/22 00:49:49;;;;;;;4.00;1.67;;;;;;;18.92;44.12;101613.19;4990947;28;20466;-71
2022/01/22 00:52:14;;;;;;;3.20;1.88;;;;;;;18.90;44.40;101610.72;4989617;28;20401;-69
2022/01/22 00:54:40;;;;;;;5.68;1.58;;;;;;;18.89;44.36;101609.09;4987377;28;20119;-71
2022/01/22 00:57:06;;;;;;;2.72;1.45;;;;;;;18.89;44.68;101612.56;4992135;28;20031;-75
2022/01/22 00:59:32;;;;;;;2.95;1.67;;;;;;;18.88;44.55;101613.53;4986987;28;20038;-70
2022/01/22 01:01:58;;;;;;;6.45;2.40;;;;;;;18.88;44.85;101599.53;5006965;28;20034;-70
2022/01/22 01:04:24;;;;;;;3.63;1.90;;;;;;;18.88;44.72;101610.91;4996820;28;20022;-70
2022/01/22 01:06:49;;;;;;;5.38;1.38;;;;;;;18.90;44.75;101608.88;4987387;28;20038;-71
2022/01/22 01:09:16;;;;;;;3.42;1.60;;;;;;;18.93;44.88;101606.91;4999513;28;20069;-73
2022/01/22 01:11:47;;;;;;;5.72;1.48;;;;;;;18.94;44.84;101605.91;4999573;28;20129;-70
2022/01/22 01:14:18;;;;;;;3.03;1.70;;;;;;;18.95;44.81;101605.75;5003704;28;20034;-73
2022/01/22 01:17:07;;;;;;;2.60;1.38;;;;;;;18.95;44.82;101604.91;4994897;28;20034;-70
2022/01/22 01:33:18;;;;;;;4.20;1.52;;;;;;;18.84;45.17;101609.59;4989211;28;20147;-71
2022/01/22 01:35:44;;;;;;;2.30;1.00;;;;;;;18.84;44.67;101604.31;4989480;28;20040;-71
2022/01/22 01:38:09;;;;;;;8.48;1.35;;;;;;;18.83;44.32;101613.22;4985821;28;20030;-70
2022/01/22 01:40:40;;;;;;;1.98;1.20;;;;;;;18.82;43.93;101606.31;4987296;28;20026;-73
2022/01/22 01:43:12;;;;;;;4.05;1.40;;;;;;;18.82;43.62;101602.84;4992094;28;20038;-71
2022/01/22 01:45:37;;;;;;;3.20;1.00;;;;;;;18.81;43.35;101601.19;4992576;28;20068;-69
2022/01/22 01:48:09;;;;;;;3.33;1.83;;;;;;;18.80;43.11;101589.81;4993574;28;20026;-73
2022/01/22 01:50:37;;;;;;;1.95;1.48;;;;;;;18.79;43.03;101596.09;5003822;28;20493;-69
2022/01/22 01:56:03;;;;;;;3.60;1.63;;;;;;;18.79;42.64;101588.16;4994458;28;20398;-70
2022/01/22 01:58:20;;;;;;;2.90;1.42;;;;;;;18.77;42.57;101587.50;4999507;28;20466;-70
2022/01/22 02:00:45;;;;;;;3.03;1.98;;;;;;;18.78;42.63;101575.13;5008293;28;20428;-72
2022/01/22 02:03:13;;;;;;;3.17;2.00;;;;;;;18.78;42.43;101583.88;5006774;28;20030;-72
2022/01/22 02:05:39;;;;;;;2.83;1.40;;;;;;;18.76;42.03;101575.31;5000382;28;20049;-70
2022/01/22 02:08:05;;;;;;;3.88;1.70;;;;;;;18.71;42.23;101571.53;4990551;28;20040;-70
2022/01/22 02:10:35;;;;;;;2.47;1.98;;;;;;;18.68;42.16;101564.78;5001351;28;20057;-71
2022/01/22 02:24:03;;;;;;;2.25;1.38;;;;;;;18.65;41.65;101567.75;4971019;28;20045;-69
2022/01/22 02:26:29;;;;;;;2.78;1.88;;;;;;;18.65;41.75;101562.47;4966119;28;20049;-68
2022/01/22 02:28:55;;;;;;;2.28;1.48;;;;;;;18.65;41.57;101567.75;4965755;28;20047;-69
2022/01/22 02:31:40;;;;;;;3.25;2.22;;;;;;;18.65;41.59;101556.38;4968244;28;20042;-68
2022/01/22 02:34:37;;;;;;;2.33;1.50;;;;;;;18.63;41.72;101556.53;4963749;28;20047;-69
2022/01/22 02:37:11;;;;;;;;;;;;;;;18.49;41.44;101547.47;4958445;28;20069;-71
2022/01/22 02:39:42;;;;;;;2.58;1.60;;;;;;;18.52;41.82;101551.59;4954614;28;19921;-70
2022/01/22 02:42:07;;;;;;;2.05;1.45;;;;;;;18.53;41.56;101550.59;4956970;28;20102;-69
2022/01/22 02:44:44;;;;;;;2.08;1.55;;;;;;;18.53;41.55;101550.59;4967752;28;20502;-70
2022/01/22 02:47:10;;;;;;;2.97;1.80;;;;;;;18.51;41.50;101548.13;4959164;28;20062;-69
2022/01/22 02:49:36;;;;;;;3.03;1.55;;;;;;;18.52;41.50;101549.78;4963156;28;20038;-69
2022/01/22 02:52:05;;;;;;;2.83;1.70;;;;;;;18.51;41.36;101542.03;4965931;28;20505;-70
2022/01/22 02:54:30;;;;;;;2.80;1.77;;;;;;;18.50;41.24;101546.47;4988384;28;20040;-71
2022/01/22 02:56:57;;;;;;;2.20;1.40;;;;;;;18.50;41.32;101549.13;5000296;28;20042;-68
2022/01/22 02:59:23;;;;;;;2.55;1.30;;;;;;;18.49;41.18;101546.66;5007608;28;20088;-68
2022/01/22 03:01:49;;;;;;;2.50;1.13;;;;;;;18.48;41.17;101539.72;5003021;28;20045;-69
2022/01/22 03:04:15;;;;;;;3.25;1.92;;;;;;;18.47;41.10;101548.63;5004955;28;20477;-69
2022/01/22 03:06:41;;;;;;;2.90;1.92;;;;;;;18.45;41.03;101546.16;4997216;28;20077;-69
2022/01/22 03:09:09;;;;;;;2.38;1.83;;;;;;;18.44;41.17;101533.13;4989619;28;20027;-68
2022/01/22 03:11:44;;;;;;;2.72;1.73;;;;;;;18.44;41.17;101530.50;4998436;28;20075;-70
2022/01/22 03:22:43;;;;;;;2.33;1.40;;;;;;;18.36;41.02;101510.28;4965796;28;20039;-70
2022/01/22 03:27:43;;;;;;;2.22;1.50;;;;;;;18.36;40.84;101504.19;4965330;28;20133;-68
2022/01/22 03:30:09;;;;;;;3.15;1.92;;;;;;;18.36;40.71;101502.34;4966022;28;20109;-68
2022/01/22 03:32:41;;;;;;;3.63;1.88;;;;;;;18.36;40.86;101493.63;4958285;28;20495;-68
2022/01/22 03:35:25;;;;;;;3.95;1.92;;;;;;;18.36;40.72;101498.91;4965994;28;20109;-67
2022/01/22 03:37:53;;;;;;;2.08;1.38;;;;;;;18.34;40.95;101496.44;4955252;28;20483;-67
2022/01/22 03:40:24;;;;;;;2.80;1.98;;;;;;;18.34;40.73;101490.31;4951452;28;20043;-68
2022/01/22 03:42:52;;;;;;;1.95;1.38;;;;;;;18.34;40.79;101490.31;4964170;28;20038;-68
2022/01/22 03:45:19;;;;;;;1.40;1.10;;;;;;;18.33;40.77;101489.50;4966148;28;20193;-67
2022/01/22 03:47:45;;;;;;;2.28;1.25;;;;;;;18.31;40.62;101488.84;4964079;28;20535;-67
2022/01/22 03:50:12;;;;;;;2.13;1.23;;;;;;;18.26;40.62;101483.25;4966461;28;20169;-68
2022/01/22 03:52:38;;;;;;;1.35;0.90;;;;;;;18.25;40.55;101478.97;4983169;28;20385;-68
2022/01/22 03:55:07;;;;;;;2.05;0.88;;;;;;;18.26;40.53;101477.16;5007974;28;20029;-70
2022/01/22 03:57:32;;;;;;;2.53;1.33;;;;;;;18.26;40.61;101466.59;5134688;23;20489;-68
2022/01/22 03:59:58;;;;;;;2.30;1.60;;;;;;;18.27;40.57;101465.63;4949613;29;20164;-68
2022/01/22 04:05:02;;;;;;;2.03;1.52;;;;;;;18.26;40.58;101461.34;4942768;28;20039;-67
2022/01/22 04:08:02;;;;;;;2.35;1.60;;;;;;;18.26;40.50;101462.16;4963953;28;20039;-69
2022/01/22 04:10:20;;;;;;;4.10;1.67;;;;;;;18.26;40.60;101467.44;4968962;28;20045;-68
2022/01/22 04:12:51;;;;;;;2.50;1.50;;;;;;;18.26;40.42;101458.69;4961896;28;20367;-68
2022/01/22 04:15:21;;;;;;;3.28;1.42;;;;;;;18.27;40.41;101462.97;4965352;28;20038;-69
2022/01/22 04:25:53;;;;;;;2.50;1.73;;;;;;;18.16;40.48;101461.53;4968059;28;20042;-39
2022/01/22 04:28:18;;;;;;;2.38;1.45;;;;;;;18.16;40.41;101466.81;4951612;28;20038;-38
2022/01/22 04:30:46;;;;;;;1.77;1.13;;;;;;;18.15;40.38;101451.97;4968461;28;20026;-39
2022/01/22 04:33:12;;;;;;;2.30;1.58;;;;;;;18.16;40.21;101450.97;4950808;28;20181;-39
2022/01/22 04:35:37;;;;;;;1.92;1.30;;;;;;;18.16;40.27;101450.97;4967892;28;20030;-38
2022/01/22 04:38:03;;;;;;;2.67;1.33;;;;;;;18.15;40.29;101450.16;4967403;28;20041;-39
2022/01/22 04:40:28;;;;;;;2.05;1.42;;;;;;;18.15;40.19;101450.16;4967028;28;20034;-39
2022/01/22 04:42:54;;;;;;;1.98;1.15;;;;;;;18.14;40.24;101439.78;4971102;28;20031;-39
2022/01/22 04:45:30;;;;;;;1.90;1.15;;;;;;;18.13;40.19;101446.88;4971027;28;20096;-39
2022/01/22 04:48:24;;;;;;;2.45;1.40;;;;;;;18.13;40.40;101446.03;4971057;28;20422;-39
2022/01/22 04:55:53;;;;;;;2.50;1.20;;;;;;;18.10;40.31;101420.84;4972900;28;20030;-39
2022/01/22 04:58:18;;;;;;;2.65;1.23;;;;;;;18.10;40.28;101425.28;4971110;28;20207;-38
2022/01/22 05:00:45;;;;;;;1.95;1.15;;;;;;;18.08;40.26;101427.25;4971394;28;20402;-39
2022/01/22 05:03:11;;;;;;;1.67;0.90;;;;;;;18.04;40.14;101425.97;4969912;28;20041;-39
2022/01/22 05:05:37;;;;;;;2.40;1.42;;;;;;;18.03;40.21;101432.22;4972137;28;20042;-38
2022/01/22 05:08:03;;;;;;;3.63;1.23;;;;;;;18.02;40.29;101423.50;4971979;28;20034;-38
2022/01/22 05:10:28;;;;;;;2.80;1.45;;;;;;;18.01;40.25;101416.56;4972402;28;20098;-39
2022/01/22 05:12:54;;;;;;;1.48;0.90;;;;;;;18.01;40.14;101427.13;4971897;28;20041;-38
2022/01/22 05:15:21;;;;;;;2.85;1.63;;;;;;;17.99;40.21;101431.75;4970583;28;20046;-39
2022/01/22 05:17:47;;;;;;;2.35;1.45;;;;;;;17.99;40.27;101434.38;4970014;28;20047;-39
2022/01/22 05:20:30;;;;;;;1.60;1.15;;;;;;;17.99;40.19;101438.81;4950942;29;20062;-38
2022/01/22 05:23:11;;;;;;;1.98;1.13;;;;;;;17.95;40.50;101438.38;4960549;28;20081;-38
2022/01/22 05:25:42;;;;;;;3.85;1.20;;;;;;;17.94;40.56;101436.72;4954072;28;20067;-38
2022/01/22 05:28:48;;;;;;;3.80;1.50;;;;;;;17.95;40.44;101432.28;4952428;28;20557;-38
2022/01/22 05:31:21;;;;;;;1.77;1.02;;;;;;;17.92;40.60;101440.53;4970042;28;20098;-38
2022/01/22 05:39:14;;;;;;;2.60;1.05;;;;;;;17.89;40.57;101434.59;4970543;28;20115;-38
2022/01/22 05:41:40;;;;;;;3.78;1.33;;;;;;;17.89;40.46;101436.41;4971577;28;20047;-39
2022/01/22 05:44:06;;;;;;;2.80;1.10;;;;;;;17.89;40.42;101436.41;4969379;28;20038;-39
2022/01/22 05:46:32;;;;;;;4.15;1.73;;;;;;;17.88;40.33;101432.94;4971686;28;20046;-38
2022/01/22 05:48:57;;;;;;;3.33;1.38;;;;;;;17.87;40.47;101435.75;4969483;28;20404;-38
2022/01/22 05:51:23;;;;;;;2.47;1.77;;;;;;;17.88;40.46;101432.13;4970939;28;20429;-39
2022/01/22 06:01:56;;;;;;;2.72;1.58;;;;;;;17.86;40.43;101423.56;4967745;28;20065;-38
2022/01/22 06:04:21;;;;;;;1.90;1.20;;;;;;;17.87;40.30;101422.56;4966775;28;20466;-38
2022/01/22 06:06:47;;;;;;;2.42;1.45;;;;;;;17.87;40.33;101425.22;4971135;28;20037;-39
2022/01/22 06:09:12;;;;;;;2.55;1.50;;;;;;;17.87;40.30;101426.03;4970204;28;20045;-39
2022/01/22 06:11:55;;;;;;;1.75;1.25;;;;;;;17.86;40.11;101424.38;4971073;28;20023;-38
2022/01/22 06:14:21;;;;;;;1.60;1.15;;;;;;;17.88;39.87;101430.31;4970759;28;20138;-38
2022/01/22 06:16:47;;;;;;;2.53;1.52;;;;;;;17.92;39.81;101433.44;4969330;28;20474;-39
2022/01/22 06:19:13;;;;;;;2.05;1.10;;;;;;;17.96;39.64;101434.72;4969114;28;20579;-38
2022/01/22 06:21:39;;;;;;;1.60;1.10;;;;;;;18.00;39.51;101424.66;4971363;28;20026;-38
2022/01/22 06:24:05;;;;;;;2.10;1.70;;;;;;;18.04;39.51;101432.06;4969882;28;20061;-38
2022/01/22 06:26:31;;;;;;;1.88;1.42;;;;;;;18.09;39.55;101428.91;4970944;28;20077;-39
2022/01/22 06:28:56;;;;;;;2.42;1.48;;;;;;;18.12;39.42;101429.41;4968940;28;20031;-38
2022/01/22 06:31:21;;;;;;;2.35;1.60;;;;;;;18.16;39.36;101435.97;4969780;28;20038;-39
2022/01/22 06:33:47;;;;;;;2.17;1.40;;;;;;;18.18;39.34;101428.72;4968520;28;20046;-39
2022/01/22 06:36:13;;;;;;;2.20;1.40;;;;;;;18.26;39.17;101442.88;4970692;28;20037;-38
2022/01/22 06:38:38;;;;;;;2.22;1.23;;;;;;;18.29;39.30;101432.81;4969337;28;20031;-39
2022/01/22 06:43:48;;;;;;;3.17;1.38;;;;;;;18.37;39.23;101439.88;4969377;28;20101;-39
2022/01/22 06:46:13;;;;;;;2.35;1.40;;;;;;;18.40;39.13;101442.16;4967484;28;20486;-39
2022/01/22 06:48:39;;;;;;;3.55;1.70;;;;;;;18.46;39.21;101438.81;4968977;28;20124;-38
2022/01/22 06:51:05;;;;;;;1.92;1.33;;;;;;;18.50;39.17;101437.47;4970305;28;20130;-38
2022/01/22 06:53:35;;;;;;;2.63;1.55;;;;;;;18.55;39.22;101435.97;4968453;28;20038;-39
2022/01/22 06:56:02;;;;;;;2.22;1.77;;;;;;;18.59;39.13;101439.06;4966744;28;20034;-39
2022/01/22 06:58:28;;;;;;;2.13;1.65;;;;;;;18.64;39.07;101434.13;4965981;28;20027;-38
2022/01/22 07:00:53;;;;;;;2.20;1.35;;;;;;;18.70;39.08;101438.72;4969623;28;20030;-39
2022/01/22 07:03:19;;;;;;;3.22;1.75;;;;;;;18.74;39.01;101441.84;4960978;28;20030;-39
2022/01/22 07:05:45;;;;;;;1.80;1.58;;;;;;;18.78;39.29;101443.97;4969452;28;20117;-41
2022/01/22 07:08:11;;;;;;;2.75;1.65;;;;;;;18.85;38.95;101441.44;4968376;28;20077;-39
2022/01/22 07:10:36;;;;;;;2.35;1.63;;;;;;;18.89;38.94;101451.47;4968349;28;20031;-39
2022/01/22 07:13:02;;;;;;;1.88;1.27;;;;;;;18.94;38.91;101445.66;4968600;28;20038;-39
2022/01/22 07:15:28;;;;;;;3.28;1.45;;;;;;;18.98;38.83;101443.47;4965387;28;20126;-40
2022/01/22 07:17:55;;;;;;;2.78;1.58;;;;;;;19.02;38.79;101439.50;4967414;28;20043;-39
2022/01/22 07:20:27;;;;;;;2.50;1.95;;;;;;;19.07;38.79;101451.19;4951971;28;20077;-39
2022/01/22 07:23:01;;;;;;;1.92;1.50;;;;;;;19.11;38.86;101438.44;4965359;28;20039;-39
2022/01/22 07:25:27;;;;;;;2.08;1.30;;;;;;;19.13;38.83;101439.09;4953354;28;20035;-39
2022/01/22 07:27:53;;;;;;;2.75;1.92;;;;;;;19.16;38.70;101433.44;4969276;28;20037;-39
2022/01/22 07:30:19;;;;;;;2.83;1.85;;;;;;;19.19;38.76;101433.09;4949782;28;20469;-39
2022/01/22 07:32:45;;;;;;;2.65;1.88;;;;;;;19.21;38.80;101434.56;4960422;28;20060;-39
2022/01/22 07:35:17;;;;;;;2.40;1.50;;;;;;;19.26;38.57;101433.22;4969694;28;20506;-39
2022/01/22 07:37:43;;;;;;;3.20;1.92;;;;;;;19.29;38.60;101433.69;4968550;28;20031;-38
2022/01/22 07:40:10;;;;;;;2.00;1.25;;;;;;;19.32;38.64;101441.25;4966765;28;20038;-39
2022/01/22 07:42:37;;;;;;;2.60;1.60;;;;;;;19.36;38.42;101441.72;4968745;28;20027;-39
2022/01/22 07:45:04;;;;;;;2.42;1.40;;;;;;;19.39;38.57;101441.34;4968004;28;20049;-39
2022/01/22 07:47:30;;;;;;;2.08;1.60;;;;;;;19.39;38.38;101436.88;4961350;28;20037;-40
2022/01/22 07:49:56;;;;;;;2.85;1.50;;;;;;;19.43;38.46;101435.53;4966382;28;20031;-39
2022/01/22 07:52:22;;;;;;;2.53;1.70;;;;;;;19.46;38.55;101427.22;4969542;28;20430;-39
2022/01/22 07:54:48;;;;;;;3.30;1.80;;;;;;;19.49;38.35;101423.41;4958795;28;20039;-39
2022/01/22 07:57:14;;;;;;;2.88;1.80;;;;;;;19.52;38.36;101426.53;4949634;29;20810;-39
2022/01/22 07:59:39;;;;;;;1.90;1.45;;;;;;;19.55;38.28;101430.66;4957193;28;20050;-39
2022/01/22 08:02:06;;;;;;;3.25;1.42;;;;;;;19.58;38.26;101427.66;4944515;28;20070;-39
2022/01/22 08:04:32;;;;;;;3.58;1.23;;;;;;;19.63;38.18;101424.47;4968233;28;20037;-39
2022/01/22 08:06:59;;;;;;;2.40;1.90;;;;;;;19.67;38.17;101431.03;4962104;28;20043;-40
2022/01/22 08:09:25;;;;;;;2.25;1.23;;;;;;;19.69;37.99;101429.03;4952631;28;20085;-39
2022/01/22 08:11:50;;;;;;;2.72;1.83;;;;;;;19.73;38.24;101425.03;4968878;28;20034;-39
2022/01/22 08:14:16;;;;;;;2.65;1.80;;;;;;;19.74;38.04;101416.09;4967846;28;20347;-39
2022/01/22 08:16:44;;;;;;;1.85;1.42;;;;;;;19.77;38.04;101406.00;4949299;28;20051;-39
2022/01/22 08:19:09;;;;;;;1.75;1.30;;;;;;;19.81;38.30;101409.09;4949882;28;20489;-39
2022/01/22 08:21:35;;;;;;;2.70;1.75;;;;;;;19.83;38.07;101410.56;4964582;28;20035;-39
2022/01/22 08:24:00;;;;;;;3.22;1.48;;;;;;;19.84;38.20;101412.19;4960370;28;20113;-39
2022/01/22 08:26:31;;;;;;;5.22;1.75;;;;;;;19.81;38.32;101407.28;4966532;28;20030;-39
2022/01/22 08:28:58;;;;;;;3.13;1.67;;;;;;;19.77;38.30;101398.06;4967389;28;20039;-39
2022/01/22 08:36:36;;;;;;;2.58;1.95;;;;;;;19.71;38.34;101401.44;4969204;28;20042;-39
2022/01/22 08:39:02;;;;;;;2.17;1.30;;;;;;;19.74;38.28;101405.53;4978835;28;20169;-39
2022/01/22 08:41:27;;;;;;;2.63;1.60;;;;;;;19.77;38.43;101408.63;4936279;29;20023;-39
2022/01/22 08:43:54;;;;;;;12.13;1.92;;;;;;;19.80;38.49;101410.09;4949533;29;20031;-38
2022/01/22 08:46:20;;;;;;;3.85;1.63;;;;;;;19.85;38.84;101405.06;4963773;28;20022;-39
2022/01/22 08:48:46;;;;;;;6.68;2.55;;;;;;;19.94;40.25;101395.22;4967832;28;20030;-38
2022/01/22 08:51:12;;;;;;;3.22;2.03;;;;;;;19.94;40.12;101388.09;4970290;28;20029;-38
2022/01/22 08:53:38;;;;;;;3.92;2.13;;;;;;;19.95;39.91;101396.84;4967234;28;20046;-38
2022/01/22 08:56:05;;;;;;;5.55;2.10;;;;;;;19.95;40.22;101392.38;4964722;28;20035;-39
2022/01/22 08:58:31;;;;;;;4.20;2.00;;;;;;;20.00;40.79;101395.28;4966947;28;20037;-39
2022/01/22 09:00:57;;;;;;;5.55;2.25;;;;;;;20.06;41.67;101396.38;4968081;28;20033;-40
2022/01/22 09:03:24;;;;;;;6.60;1.90;;;;;;;20.08;42.50;101407.59;4961725;28;20490;-36
2022/01/22 09:05:50;;;;;;;2.17;1.40;;;;;;;20.11;42.74;101408.06;4966781;28;20034;-39
2022/01/22 09:08:15;;;;;;;3.90;1.25;;;;;;;20.10;43.09;101416.19;4966133;28;20035;-39
2022/01/22 09:10:42;;;;;;;2.92;1.95;;;;;;;20.05;42.91;101413.25;4965311;28;20038;-39
2022/01/22 09:13:09;;;;;;;2.35;1.60;;;;;;;20.00;42.91;101411.16;4963289;28;20047;-40
2022/01/22 09:15:34;;;;;;;3.28;2.05;;;;;;;19.96;42.78;101404.59;4965599;28;20034;-38
2022/01/22 09:18:00;;;;;;;9.50;1.83;;;;;;;19.93;42.89;101412.91;4960981;28;20043;-41
2022/01/22 09:23:05;;;;;;;4.45;1.65;;;;;;;19.92;42.97;101405.16;4948391;29;20039;-42
2022/01/22 09:25:30;;;;;;;4.25;1.52;;;;;;;19.91;42.90;101414.09;4947752;28;20471;-44
2022/01/22 09:27:57;;;;;;;4.15;1.40;;;;;;;19.91;42.80;101416.72;4947852;28;20042;-41
2022/01/22 09:30:23;;;;;;;5.07;1.67;;;;;;;19.87;42.80;101413.63;4947158;28;20030;-40
2022/01/22 09:32:49;;;;;;;4.10;1.67;;;;;;;19.86;42.82;101415.44;4958356;28;20105;-39
2022/01/22 09:35:15;;;;;;;5.35;1.25;;;;;;;19.86;42.97;101415.44;4938584;28;20059;-41
2022/01/22 09:37:41;;;;;;;6.93;1.65;;;;;;;19.87;43.65;101416.28;4954139;28;20039;-40
2022/01/22 09:40:07;;;;;;;2.75;1.77;;;;;;;19.84;43.93;101411.38;4949812;28;20032;-40
2022/01/22 09:42:33;;;;;;;2.53;1.17;;;;;;;19.81;43.60;101415.19;4950980;28;20034;-40
2022/01/22 09:44:59;;;;;;;5.43;1.30;;;;;;;19.82;43.30;101416.03;4951059;28;20031;-39
2022/01/22 09:47:25;;;;;;;5.88;1.33;;;;;;;19.81;43.32;101409.91;4952542;28;20066;-41
2022/01/22 09:49:50;;;;;;;3.55;1.50;;;;;;;19.80;43.31;101404.81;4946780;28;20471;-41
2022/01/22 09:52:17;;;;;;;2.50;1.30;;;;;;;19.79;43.44;101397.88;4950626;28;20035;-40
2022/01/22 09:54:42;;;;;;;4.82;1.30;;;;;;;19.80;43.30;101404.81;4952616;28;20035;-42
2022/01/22 09:57:09;;;;;;;4.00;1.48;;;;;;;19.77;43.09;101400.69;4951053;28;20085;-40
2022/01/22 09:59:35;;;;;;;2.22;1.02;;;;;;;19.74;43.04;101398.41;4947853;28;20035;-40
2022/01/22 10:02:13;;;;;;;2.75;1.40;;;;;;;19.73;42.97;101403.88;4952500;28;20546;-39
2022/01/22 10:04:41;;;;;;;2.92;1.40;;;;;;;19.76;42.86;101406.16;4982797;23;20066;-69
2022/01/22 10:07:21;;;;;;;3.92;1.30;;;;;;;19.75;42.80;101410.63;4949279;28;20050;-69
2022/01/22 10:10:06;;;;;;;6.88;1.55;;;;;;;19.72;42.45;101402.25;4945470;28;20153;-69
2022/01/22 10:49:07;;;;;;;5.10;1.27;;;;;;;19.67;42.61;101357.03;4943957;28;20047;-70
2022/01/22 10:51:50;;;;;;;3.25;1.17;;;;;;;19.69;43.97;101357.66;4946855;28;20081;-70
2022/01/22 10:54:19;;;;;;;7.03;2.08;;;;;;;19.72;44.68;101358.13;4946299;28;20040;-70
2022/01/22 10:56:46;;;;;;;3.42;1.60;;;;;;;19.73;45.46;101361.59;4945730;28;20114;-69
2022/01/22 10:59:14;;;;;;;6.43;1.83;;;;;;;19.73;44.54;101351.00;4949725;29;20205;-70
2022/01/22 11:01:54;;;;;;;4.47;1.30;;;;;;;19.71;45.10;101342.44;4949381;28;20070;-70
2022/01/22 11:04:25;;;;;;;2.88;0.90;;;;;;;19.71;43.93;101345.09;4940554;28;20097;-69
2022/01/22 11:07:02;;;;;;;6.40;1.35;;;;;;;19.68;43.38;101345.44;4949426;29;20046;-70
2022/01/22 11:09:32;;;;;;;4.78;1.42;;;;;;;19.68;43.26;101342.81;4948772;29;20027;-70
2022/01/22 11:11:59;;;;;;;4.68;1.40;;;;;;;19.67;42.47;101343.81;4947044;29;20171;-69
2022/01/22 11:14:27;;;;;;;5.55;1.30;;;;;;;19.64;41.70;101349.47;4946930;29;20110;-70
2022/01/22 11:16:53;;;;;;;5.82;1.17;;;;;;;19.60;41.33;101348.19;4947980;29;20041;-69
2022/01/22 11:19:30;;;;;;;9.82;1.60;;;;;;;19.53;40.77;101343.63;4946812;29;20474;-70
2022/01/22 11:21:57;;;;;;;6.28;1.52;;;;;;;19.52;40.57;101341.16;4950181;28;20042;-69
2022/01/22 11:24:25;;;;;;;11.50;1.08;;;;;;;19.50;40.41;101343.94;4948338;29;20046;-69
2022/01/22 11:26:57;;;;;;;4.43;1.55;;;;;;;19.47;39.97;101336.38;4948633;28;20043;-69
2022/01/22 11:29:30;;;;;;;9.07;1.50;;;;;;;19.42;39.82;101336.09;4947591;29;20375;-69
2022/01/22 11:31:58;;;;;;;10.18;1.67;;;;;;;19.41;39.47;101334.47;4946436;29;20032;-68
2022/01/22 11:34:26;;;;;;;4.88;0.93;;;;;;;19.40;39.20;101329.34;4948001;29;20098;-69
2022/01/22 11:36:59;;;;;;;8.80;1.50;;;;;;;19.39;38.78;101333.81;4935451;29;20039;-68
2022/01/22 11:39:26;;;;;;;4.55;0.98;;;;;;;19.41;38.89;101329.16;4949527;29;20148;-68
2022/01/22 11:41:58;;;;;;;6.35;1.00;;;;;;;19.39;39.21;101325.88;4948764;29;20038;-68
2022/01/22 11:44:33;;;;;;;4.75;1.58;;;;;;;19.37;39.15;101314.72;4949542;29;20208;-68
2022/01/22 11:47:11;;;;;;;9.60;1.13;;;;;;;19.37;38.94;101327.91;4946907;29;20063;-69
2022/01/22 11:49:37;;;;;;;4.40;1.13;;;;;;;19.37;38.70;101333.22;4946304;28;20049;-69
2022/01/22 11:52:12;;;;;;;3.15;0.75;;;;;;;19.35;38.48;101334.38;4945762;28;20110;-68
2022/01/22 11:54:51;;;;;;;3.00;0.88;;;;;;;19.31;38.01;101322.53;4945733;29;20517;-69
2022/01/22 11:57:17;;;;;;;4.35;1.00;;;;;;;19.30;38.19;101324.34;4941672;29;20390;-71
2022/01/22 11:59:46;;;;;;;3.40;1.15;;;;;;;19.28;37.89;101322.91;4944198;29;20031;-68
2022/01/22 12:02:13;;;;;;;4.05;1.15;;;;;;;19.26;37.76;101312.50;4948712;29;20039;-68
2022/01/22 12:04:38;;;;;;;10.27;1.20;;;;;;;19.26;37.88;101314.31;4952309;28;20039;-68
2022/01/22 12:07:04;;;;;;;11.05;1.13;;;;;;;19.22;38.08;101311.22;4949896;29;20379;-69
2022/01/22 12:09:43;;;;;;;13.15;1.13;;;;;;;19.21;38.05;101304.31;4948345;29;20071;-68
2022/01/22 12:15:18;;;;;;;15.20;1.83;;;;;;;19.16;38.60;101293.44;4947376;29;20096;-69
2022/01/22 12:23:08;;;;;;;11.95;2.00;;;;;;;19.35;41.74;101289.47;4948864;29;20050;-68
2022/01/22 12:25:33;;;;;;;19.02;2.50;;;;;;;19.59;43.76;101293.66;4949197;29;20597;-70
2022/01/22 12:27:59;;;;;;;18.70;3.58;;;;;;;19.80;48.31;101288.47;4945846;29;20032;-69
2022/01/22 12:30:36;;;;;;;14.70;3.25;;;;;;;20.03;53.79;101283.03;4947207;29;20435;-68
2022/01/22 12:33:06;;;;;;;6.35;2.00;;;;;;;20.15;51.57;101286.81;4946696;29;20039;-70
2022/01/22 12:35:40;;;;;;;9.65;2.20;;;;;;;20.23;50.44;101291.19;4946994;29;20118;-68
2022/01/22 12:38:28;;;;;;;9.95;2.42;;;;;;;20.13;45.81;101279.06;4946720;29;20037;-68
2022/01/22 12:41:13;;;;;;;7.18;3.15;;;;;;;19.94;44.89;101273.53;4947067;29;20035;-69
2022/01/22 12:43:39;;;;;;;79.60;12.50;;;;;;;19.87;45.94;101273.47;4938473;29;20118;-68
2022/01/22 12:46:05;;;;;;;41.75;7.40;;;;;;;19.93;45.86;101266.63;4946802;29;20031;-68
2022/01/22 12:48:33;;;;;;;15.43;4.20;;;;;;;19.92;46.35;101260.50;4947493;29;20059;-68
2022/01/22 12:51:07;;;;;;;45.38;11.35;;;;;;;19.96;48.90;101261.78;4945819;29;20435;-68
2022/01/22 12:53:35;;;;;;;50.30;14.53;;;;;;;20.17;50.29;101251.22;4945865;29;20031;-68
2022/01/22 12:58:46;;;;;;;67.10;13.60;;;;;;;20.38;50.43;101252.25;4930995;29;20092;-70
2022/01/22 13:01:33;;;;;;;55.42;11.45;;;;;;;20.32;49.49;101266.25;4945330;29;20118;-68
2022/01/22 13:04:02;;;;;;;48.33;9.02;;;;;;;20.20;48.88;101256.16;4951609;28;20085;-68
2022/01/22 13:06:42;;;;;;;34.88;7.40;;;;;;;20.08;48.14;101255.00;4949376;29;20038;-69
2022/01/22 13:09:10;;;;;;;27.63;6.63;;;;;;;20.00;48.07;101254.28;4955593;28;20086;-67
2022/01/22 13:11:44;;;;;;;27.92;7.70;;;;;;;19.96;47.79;101253.03;4950909;29;20046;-68
2022/01/22 13:14:10;;;;;;;28.60;6.32;;;;;;;19.92;47.62;101259.69;4951621;29;20061;-68
2022/01/22 13:16:45;;;;;;;30.00;6.10;;;;;;;19.84;47.10;101258.00;4951112;29;20035;-70
2022/01/22 13:19:11;;;;;;;24.13;5.88;;;;;;;19.82;46.96;101254.72;4950244;29;20031;-67
2022/01/22 13:21:36;;;;;;;24.13;5.28;;;;;;;19.78;46.84;101248.16;4952449;29;20426;-71
2022/01/22 13:24:02;;;;;;;21.25;4.50;;;;;;;19.76;47.28;101255.47;4952420;29;20383;-68
2022/01/22 13:26:51;;;;;;;21.33;5.25;;;;;;;19.71;46.15;101252.56;4947353;28;20031;-68
2022/01/22 13:29:29;;;;;;;21.73;4.72;;;;;;;19.69;46.23;101260.66;4948955;28;21781;-68
2022/01/22 13:32:16;;;;;;;22.33;4.43;;;;;;;19.71;45.95;101255.19;4948513;29;20050;-69
2022/01/22 13:35:24;;;;;;;18.20;3.58;;;;;;;19.72;47.08;101248.91;4947919;28;20424;-68
2022/01/22 13:40:59;;;;;;;17.83;4.72;;;;;;;19.62;48.03;101251.84;4941193;29;19922;-67